createdAt,value
2023-10-17T00:03:39.260Z,13.38
2023-10-17T00:07:49.451Z,13.95
2023-10-17T00:11:55.253Z,14.09
2023-10-17T00:15:57.024Z,13.20
2023-10-17T00:20:00.933Z,13.67
2023-10-17T00:24:06.080Z,13.59
2023-10-17T00:28:07.496Z,13.79
2023-10-17T00:32:10.340Z,13.84
2023-10-17T00:36:17.866Z,13.81
2023-10-17T00:40:35.465Z,13.81
2023-10-17T00:44:41.589Z,13.79
2023-10-17T00:48:43.851Z,13.86
2023-10-17T00:52:45.901Z,13.76
2023-10-17T00:56:48.280Z,13.66
2023-10-17T01:00:54.695Z,13.59
2023-10-17T01:05:00.066Z,13.49
2023-10-17T01:09:19.831Z,13.45
2023-10-17T01:13:21.284Z,13.43
2023-10-17T01:17:26.623Z,13.59
2023-10-17T01:21:28.200Z,13.64
2023-10-17T01:25:36.486Z,13.56
2023-10-17T01:29:39.284Z,13.62
2023-10-17T01:33:43.805Z,13.66
2023-10-17T01:37:45.145Z,13.61
2023-10-17T01:41:52.951Z,13.75
2023-10-17T01:45:55.340Z,13.78
2023-10-17T01:49:58.454Z,13.90
2023-10-17T01:53:59.867Z,13.94
2023-10-17T01:58:03.290Z,13.86
2023-10-17T02:02:04.936Z,13.73
2023-10-17T02:06:15.661Z,13.16
2023-10-17T02:10:22.734Z,13.14
2023-10-17T02:14:24.843Z,13.56
2023-10-17T02:18:27.029Z,13.80
2023-10-17T02:22:30.072Z,13.73
2023-10-17T02:26:32.297Z,13.22
2023-10-17T02:30:33.700Z,13.12
2023-10-17T02:34:35.264Z,13.20
2023-10-17T02:38:37.399Z,13.05
2023-10-17T02:42:38.748Z,13.37
2023-10-17T02:46:42.113Z,13.39
2023-10-17T02:50:51.271Z,13.52
2023-10-17T02:55:06.815Z,13.25
2023-10-17T02:59:08.204Z,13.39
2023-10-17T03:03:15.726Z,13.67
2023-10-17T03:07:17.365Z,13.54
2023-10-17T03:11:27.910Z,13.41
2023-10-17T03:15:31.070Z,13.84
2023-10-17T03:19:34.350Z,13.72
2023-10-17T03:23:36.025Z,13.76
2023-10-17T03:27:38.420Z,13.74
2023-10-17T03:31:42.660Z,13.92
2023-10-17T03:35:50.656Z,13.47
2023-10-17T03:40:01.628Z,13.58
2023-10-17T03:44:03.442Z,13.81
2023-10-17T03:48:14.477Z,13.42
2023-10-17T03:52:17.582Z,13.60
2023-10-17T03:56:25.050Z,13.73
2023-10-17T04:00:36.079Z,13.77
2023-10-17T04:04:38.419Z,13.76
2023-10-17T04:08:49.464Z,13.86
2023-10-17T04:13:06.463Z,13.94
2023-10-17T04:17:08.163Z,13.88
2023-10-17T04:21:28.219Z,13.95
2023-10-17T04:25:35.869Z,13.96
2023-10-17T04:29:39.106Z,13.79
2023-10-17T04:33:42.860Z,13.81
2023-10-17T04:37:46.268Z,13.84
2023-10-17T04:41:54.591Z,13.64
2023-10-17T04:46:10.129Z,13.97
2023-10-17T04:50:14.124Z,13.84
2023-10-17T04:54:40.300Z,13.38
2023-10-17T04:58:43.708Z,13.79
2023-10-17T05:02:56.016Z,13.76
2023-10-17T05:06:57.462Z,13.88
2023-10-17T05:11:17.239Z,14.09
2023-10-17T05:15:37.156Z,13.72
2023-10-17T05:19:57.011Z,13.94
2023-10-17T05:24:20.166Z,14.00
2023-10-17T05:28:41.808Z,14.05
2023-10-17T05:33:01.896Z,13.57
2023-10-17T05:37:22.430Z,13.99
2023-10-17T05:41:42.600Z,13.90
2023-10-17T05:46:13.694Z,14.17
2023-10-17T05:50:33.581Z,13.86
2023-10-17T05:59:18.116Z,13.65
2023-10-17T06:03:38.444Z,14.08
2023-10-17T06:07:59.261Z,14.07
2023-10-17T06:12:29.467Z,14.08
2023-10-17T06:16:54.967Z,13.98
2023-10-17T06:21:06.422Z,13.62
2023-10-17T06:25:08.678Z,14.03
2023-10-17T06:29:16.160Z,13.92
2023-10-17T06:33:21.006Z,13.85
2023-10-17T06:37:44.299Z,13.67
2023-10-17T06:41:47.291Z,14.01
2023-10-17T06:45:54.209Z,13.85
2023-10-17T06:50:14.052Z,13.08
2023-10-17T06:54:15.459Z,13.41
2023-10-17T06:58:16.875Z,14.13
2023-10-17T07:02:58.280Z,13.86
2023-10-17T07:07:04.885Z,14.03
2023-10-17T07:11:08.836Z,14.34
2023-10-17T07:15:14.506Z,14.83
2023-10-17T07:19:44.888Z,14.73
2023-10-17T07:23:49.257Z,14.95
2023-10-17T07:27:56.632Z,14.52
2023-10-17T07:32:02.416Z,14.87
2023-10-17T07:36:05.937Z,14.37
2023-10-17T07:40:11.162Z,14.87
2023-10-17T07:44:22.390Z,14.93
2023-10-17T07:48:27.394Z,14.54
2023-10-17T07:52:32.079Z,15.10
2023-10-17T07:56:33.985Z,15.44
2023-10-17T08:00:35.552Z,15.37
2023-10-17T08:04:37.671Z,15.92
2023-10-17T08:08:45.309Z,16.06
2023-10-17T08:12:47.101Z,16.14
2023-10-17T08:16:50.843Z,15.83
2023-10-17T08:21:00.920Z,16.26
2023-10-17T08:25:02.363Z,16.41
2023-10-17T08:29:09.632Z,16.51
2023-10-17T08:33:12.932Z,16.83
2023-10-17T08:37:27.770Z,17.09
2023-10-17T08:41:30.052Z,17.31
2023-10-17T08:45:37.400Z,17.04
2023-10-17T08:49:40.324Z,16.79
2023-10-17T08:53:43.319Z,17.11
2023-10-17T08:57:47.975Z,17.10
2023-10-17T09:02:03.697Z,17.23
2023-10-17T09:06:28.979Z,17.52
2023-10-17T09:10:42.181Z,16.98
2023-10-17T09:14:45.746Z,16.46
2023-10-17T09:18:55.154Z,17.82
2023-10-17T09:22:56.581Z,18.38
2023-10-17T09:26:58.890Z,18.90
2023-10-17T09:31:07.876Z,19.27
2023-10-17T09:35:16.839Z,18.62
2023-10-17T09:39:37.653Z,18.99
2023-10-17T09:43:39.737Z,19.16
2023-10-17T09:47:50.333Z,20.14
2023-10-17T09:51:54.150Z,20.99
2023-10-17T09:55:59.393Z,20.64
2023-10-17T10:00:18.062Z,19.34
2023-10-17T10:04:20.172Z,17.89
2023-10-17T10:08:34.776Z,18.81
2023-10-17T10:12:59.740Z,19.42
2023-10-17T10:17:04.741Z,19.32
2023-10-17T10:21:08.578Z,20.89
2023-10-17T10:25:09.898Z,23.14
2023-10-17T10:29:24.265Z,24.61
2023-10-17T10:33:29.269Z,24.16
2023-10-17T10:37:47.731Z,24.37
2023-10-17T10:42:01.742Z,26.69
2023-10-17T10:46:03.303Z,26.74
2023-10-17T10:50:08.407Z,26.56
2023-10-17T10:54:09.985Z,26.62
2023-10-17T10:58:13.237Z,28.12
2023-10-17T11:02:15.678Z,28.06
2023-10-17T11:06:28.343Z,28.17
2023-10-17T11:10:30.540Z,28.27
2023-10-17T11:14:32.411Z,28.71
2023-10-17T11:18:44.880Z,27.18
2023-10-17T11:22:47.885Z,27.58
2023-10-17T11:26:52.086Z,27.33
2023-10-17T11:30:54.572Z,26.15
2023-10-17T11:35:06.288Z,25.22
2023-10-17T11:39:08.591Z,25.82
2023-10-17T11:43:21.799Z,26.25
2023-10-17T11:47:24.467Z,24.54
2023-10-17T11:51:30.195Z,22.26
2023-10-17T11:55:41.815Z,21.36
2023-10-17T12:00:09.130Z,20.84
2023-10-17T12:04:12.331Z,20.46
2023-10-17T12:08:23.264Z,19.82
2023-10-17T12:12:25.014Z,19.47
2023-10-17T12:16:26.490Z,19.73
2023-10-17T12:20:28.377Z,19.17
2023-10-17T12:24:30.549Z,18.91
2023-10-17T12:28:32.154Z,19.17
2023-10-17T12:32:34.680Z,18.95
2023-10-17T12:36:37.444Z,19.25
2023-10-17T12:40:39.356Z,19.19
2023-10-17T12:44:40.787Z,19.44
2023-10-17T12:48:42.965Z,19.37
2023-10-17T12:52:44.509Z,19.18
2023-10-17T12:56:45.998Z,19.59
2023-10-17T13:00:50.706Z,19.55
2023-10-17T13:04:52.188Z,19.56
2023-10-17T13:08:57.719Z,19.54
2023-10-17T13:13:01.699Z,19.56
2023-10-17T13:17:04.229Z,18.98
2023-10-17T13:21:13.558Z,18.66
2023-10-17T13:25:15.305Z,19.26
2023-10-17T13:29:18.435Z,19.38
2023-10-17T13:33:22.314Z,19.01
2023-10-17T13:37:24.107Z,19.21
2023-10-17T13:41:26.689Z,19.10
2023-10-17T13:45:30.126Z,19.01
2023-10-17T13:49:31.912Z,19.41
2023-10-17T13:53:34.406Z,18.84
2023-10-17T13:57:36.707Z,19.20
2023-10-17T14:01:46.533Z,19.34
2023-10-17T14:05:51.465Z,19.66
2023-10-17T14:09:56.680Z,19.65
2023-10-17T14:13:58.273Z,19.39
2023-10-17T14:18:02.057Z,19.64
2023-10-17T14:22:13.786Z,19.57
2023-10-17T14:26:16.305Z,19.19
2023-10-17T14:30:17.810Z,19.16
2023-10-17T14:34:19.423Z,19.51
2023-10-17T14:38:20.861Z,19.23
2023-10-17T14:42:23.318Z,19.36
2023-10-17T14:46:26.175Z,19.53
2023-10-17T14:50:27.904Z,19.31
2023-10-17T14:54:29.605Z,19.70
2023-10-17T14:58:32.435Z,19.61
2023-10-17T15:02:34.474Z,19.24
2023-10-17T15:06:37.794Z,19.47
2023-10-17T15:10:41.299Z,19.36
2023-10-17T15:14:42.717Z,19.42
2023-10-17T15:18:44.736Z,18.99
2023-10-17T15:22:46.673Z,19.43
2023-10-17T15:26:48.387Z,19.31
2023-10-17T15:30:49.771Z,19.34
2023-10-17T15:34:51.126Z,19.29
2023-10-17T15:38:52.906Z,19.19
2023-10-17T15:42:54.375Z,19.05
2023-10-17T15:46:55.809Z,18.99
2023-10-17T15:50:57.809Z,19.05
2023-10-17T15:54:59.188Z,18.82
2023-10-17T15:59:00.586Z,18.96
2023-10-17T16:03:02.044Z,18.77
2023-10-17T16:07:03.451Z,18.73
2023-10-17T16:11:05.192Z,18.47
2023-10-17T16:15:07.607Z,18.63
2023-10-17T16:19:09.242Z,18.40
2023-10-17T16:23:10.806Z,18.24
2023-10-17T16:27:13.083Z,18.46
2023-10-17T16:31:14.805Z,18.38
2023-10-17T16:35:19.977Z,18.18
2023-10-17T16:39:24.471Z,18.05
2023-10-17T16:43:26.317Z,18.09
2023-10-17T16:47:27.842Z,18.12
2023-10-17T16:51:31.092Z,17.83
2023-10-17T16:55:32.419Z,17.76
2023-10-17T16:59:35.037Z,17.89
2023-10-17T17:03:36.919Z,17.64
2023-10-17T17:07:39.794Z,17.81
2023-10-17T17:11:43.530Z,17.70
2023-10-17T17:15:48.182Z,17.55
2023-10-17T17:19:50.016Z,17.37
2023-10-17T17:23:51.383Z,17.52
2023-10-17T17:27:52.755Z,17.50
2023-10-17T17:31:59.388Z,17.35
2023-10-17T17:36:01.168Z,17.21
2023-10-17T17:40:05.012Z,17.18
2023-10-17T17:44:08.867Z,17.27
2023-10-17T17:48:10.546Z,16.98
2023-10-17T17:52:11.947Z,16.43
2023-10-17T17:56:17.455Z,16.68
2023-10-17T18:00:23.912Z,16.82
2023-10-17T18:04:31.314Z,16.64
2023-10-17T18:08:35.073Z,16.77
2023-10-17T18:12:41.723Z,16.77
2023-10-17T18:16:43.164Z,16.46
2023-10-17T18:20:44.636Z,16.84
2023-10-17T18:24:46.088Z,16.33
2023-10-17T18:28:47.679Z,16.16
2023-10-17T18:32:49.037Z,16.41
2023-10-17T18:36:51.062Z,16.10
2023-10-17T18:40:52.501Z,16.50
2023-10-17T18:45:07.537Z,16.05
2023-10-17T18:49:15.264Z,16.05
2023-10-17T18:53:18.872Z,16.08
2023-10-17T18:57:21.838Z,15.76
2023-10-17T19:01:23.410Z,15.73
2023-10-17T19:05:27.434Z,16.08
2023-10-17T19:09:29.440Z,15.89
2023-10-17T19:13:34.166Z,15.83
2023-10-17T19:17:35.829Z,15.69
2023-10-17T19:21:37.513Z,15.51
2023-10-17T19:25:40.666Z,15.61
2023-10-17T19:29:42.300Z,15.68
2023-10-17T19:33:43.615Z,15.50
2023-10-17T19:37:46.660Z,15.79
2023-10-17T19:41:49.263Z,15.65
2023-10-17T19:45:53.843Z,15.56
2023-10-17T19:49:55.308Z,15.60
2023-10-17T19:53:56.617Z,15.26
2023-10-17T19:57:58.039Z,15.18
2023-10-17T20:01:59.474Z,15.39
2023-10-17T20:06:01.533Z,15.16
2023-10-17T20:10:03.549Z,15.15
2023-10-17T20:14:04.986Z,15.05
2023-10-17T20:18:06.517Z,15.01
2023-10-17T20:22:07.999Z,14.99
2023-10-17T20:26:09.540Z,14.84
2023-10-17T20:30:12.668Z,14.55
2023-10-17T20:34:14.293Z,14.74
2023-10-17T20:38:16.341Z,14.68
2023-10-17T20:42:17.693Z,14.69
2023-10-17T20:46:19.417Z,14.79
2023-10-17T20:50:21.230Z,14.68
2023-10-17T20:54:22.664Z,14.50
2023-10-17T20:58:24.044Z,14.53
2023-10-17T21:02:25.403Z,14.64
2023-10-17T21:06:26.819Z,14.66
2023-10-17T21:10:29.812Z,14.58
2023-10-17T21:14:31.136Z,14.64
2023-10-17T21:18:32.481Z,14.56
2023-10-17T21:22:33.801Z,14.36
2023-10-17T21:26:35.365Z,14.47
2023-10-17T21:30:39.975Z,14.37
2023-10-17T21:34:42.664Z,14.27
2023-10-17T21:38:44.067Z,14.23
2023-10-17T21:42:45.451Z,14.26
2023-10-17T21:46:47.061Z,14.35
2023-10-17T21:50:59.627Z,14.31
2023-10-17T21:55:11.509Z,14.26
2023-10-17T21:59:15.131Z,13.97
2023-10-17T22:03:21.075Z,14.04
2023-10-17T22:07:22.912Z,14.11
2023-10-17T22:11:24.379Z,14.02
2023-10-17T22:15:25.693Z,13.91
2023-10-17T22:19:28.355Z,13.91
2023-10-17T22:23:30.182Z,14.01
2023-10-17T22:27:31.662Z,13.95
2023-10-17T22:31:33.454Z,14.00
2023-10-17T22:35:34.864Z,13.97
2023-10-17T22:39:36.397Z,13.98
2023-10-17T22:43:37.887Z,14.01
2023-10-17T22:47:40.139Z,13.83
2023-10-17T22:51:41.592Z,13.89
2023-10-17T22:55:43.717Z,13.78
2023-10-17T22:59:45.830Z,13.82
2023-10-17T23:03:48.134Z,13.78
2023-10-17T23:07:49.709Z,13.80
2023-10-17T23:11:51.101Z,13.82
2023-10-17T23:15:52.621Z,13.56
2023-10-17T23:19:54.016Z,13.75
2023-10-17T23:23:55.319Z,13.73
2023-10-17T23:27:57.207Z,13.73
2023-10-17T23:31:58.921Z,13.51
2023-10-17T23:36:00.407Z,13.76
2023-10-17T23:40:02.505Z,13.67
2023-10-17T23:44:04.000Z,13.75
2023-10-17T23:48:15.792Z,13.60
2023-10-17T23:52:18.425Z,13.76
2023-10-17T23:56:23.903Z,13.64
